Time;durP1;ratioP1;P1;durP2;ratioP2;P2;SDS_P1;SDS_P2;PMS_P1;PMS_P2;Temp;Humidity;BMP_temperature;BMP_pressure;BME280_temperature;BME280_humidity;BME280_pressure;Samples;Min_cycle;Max_cycle;Signal;HPM_P1;HPM_P2
2022/05/02 00:00:30;;;;;;;9.20;4.10;;;;;;;12.79;60.68;99927.50;3120591;28;20061;-73
2022/05/02 00:02:01;;;;;;;11.52;5.07;;;;;;;12.87;60.52;99938.41;3120758;28;20056;-73
2022/05/02 00:03:33;;;;;;;8.60;4.32;;;;;;;12.87;60.81;99942.78;3120482;28;20545;-73
2022/05/02 00:05:05;;;;;;;8.18;4.65;;;;;;;12.68;60.90;99916.75;3120502;28;20100;-72
2022/05/02 00:06:40;;;;;;;8.63;4.47;;;;;;;12.83;61.12;99936.84;3120746;28;20170;-73
2022/05/02 00:08:13;;;;;;;9.20;4.47;;;;;;;12.80;60.79;99946.63;3120910;28;20160;-72
2022/05/02 00:09:44;;;;;;;10.18;4.85;;;;;;;12.67;60.84;99926.38;3120882;28;20046;-72
2022/05/02 00:11:17;;;;;;;10.68;5.22;;;;;;;12.42;60.91;99889.34;3121002;28;20103;-74
2022/05/02 00:12:50;;;;;;;6.70;4.30;;;;;;;12.74;60.72;99943.41;3120353;28;20115;-75
2022/05/02 00:14:22;;;;;;;6.90;4.05;;;;;;;12.70;60.95;99931.44;3120762;28;20502;-75
2022/05/02 00:15:53;;;;;;;7.10;3.30;;;;;;;12.57;60.93;99914.72;3120362;28;20412;-75
2022/05/02 00:19:12;;;;;;;6.78;3.15;;;;;;;12.58;61.06;99916.41;3114872;28;20586;-75
2022/05/02 00:20:44;;;;;;;7.13;3.58;;;;;;;12.68;61.16;99937.66;3123408;28;20056;-75
2022/05/02 00:22:15;;;;;;;5.55;3.55;;;;;;;12.56;60.90;99914.78;3124641;28;20417;-75
2022/05/02 00:23:47;;;;;;;9.68;3.22;;;;;;;12.65;60.87;99937.81;3126046;28;20049;-76
2022/05/02 00:25:19;;;;;;;10.75;3.17;;;;;;;12.63;61.38;99931.81;3122987;28;20049;-75
2022/05/02 00:26:51;;;;;;;10.10;3.70;;;;;;;12.61;61.04;99934.53;3117769;28;20053;-75
2022/05/02 00:28:25;;;;;;;6.10;3.47;;;;;;;12.58;61.30;99928.63;3122771;28;20115;-75
2022/05/02 00:29:55;;;;;;;11.32;3.17;;;;;;;12.62;61.36;99927.53;3123266;28;20129;-75
2022/05/02 00:31:27;;;;;;;6.25;2.90;;;;;;;12.40;61.04;99886.84;3125216;28;20053;-75
2022/05/02 00:32:59;;;;;;;5.93;3.13;;;;;;;12.65;61.04;99924.75;3123759;28;20049;-75
2022/05/02 00:34:31;;;;;;;8.10;3.50;;;;;;;12.56;61.09;99906.94;3127387;28;20107;-75
2022/05/02 00:36:03;;;;;;;4.93;3.03;;;;;;;12.63;61.17;99926.59;3122934;28;20565;-74
2022/05/02 00:37:35;;;;;;;7.78;3.33;;;;;;;12.53;61.14;99910.56;3123181;28;20049;-76
2022/05/02 00:39:09;;;;;;;8.50;3.50;;;;;;;12.63;61.26;99921.34;3122823;28;20442;-76
2022/05/02 00:40:40;;;;;;;9.07;3.25;;;;;;;12.64;61.39;99917.84;3124545;28;20052;-76
2022/05/02 00:42:12;;;;;;;5.88;2.92;;;;;;;12.64;61.38;99912.63;3122727;28;20056;-75
2022/05/02 00:43:46;;;;;;;5.18;3.05;;;;;;;12.58;60.83;99902.50;3123053;28;20072;-75
2022/05/02 00:45:19;;;;;;;7.18;3.55;;;;;;;12.52;61.13;99896.66;3122596;28;21903;-76
2022/05/02 00:46:52;;;;;;;7.20;3.03;;;;;;;12.58;60.91;99905.94;3123056;28;20053;-75
2022/05/02 00:48:24;;;;;;;20.25;3.45;;;;;;;12.62;60.89;99904.00;3122673;28;20541;-75
2022/05/02 00:49:56;;;;;;;6.07;3.33;;;;;;;12.34;61.05;99865.44;3122982;28;20441;-75
2022/05/02 00:51:27;;;;;;;11.13;3.92;;;;;;;12.56;61.16;99901.72;3122872;28;20046;-75
2022/05/02 00:52:58;;;;;;;4.97;3.35;;;;;;;12.61;61.04;99908.41;3122617;28;20061;-75
2022/05/02 00:54:30;;;;;;;6.03;3.45;;;;;;;12.60;61.05;99905.84;3122892;28;20114;-75
2022/05/02 00:56:02;;;;;;;8.13;3.88;;;;;;;12.62;60.89;99915.28;3122840;28;20049;-75
2022/05/02 00:57:35;;;;;;;7.32;3.50;;;;;;;12.46;60.98;99890.91;3122275;28;20057;-75
2022/05/02 00:59:12;;;;;;;8.27;3.38;;;;;;;12.61;61.10;99918.84;3122718;28;20057;-75
2022/05/02 01:00:45;;;;;;;7.43;3.42;;;;;;;12.59;61.09;99912.84;3122940;28;20587;-75
2022/05/02 01:02:17;;;;;;;8.13;3.85;;;;;;;12.59;61.21;99914.63;3122693;28;20061;-76
2022/05/02 01:03:50;;;;;;;4.65;3.20;;;;;;;12.44;61.03;99890.13;3122758;28;20046;-75
2022/05/02 01:05:22;;;;;;;5.50;3.63;;;;;;;12.57;60.97;99913.84;3122871;28;20474;-74
2022/05/02 01:07:11;;;;;;;5.07;3.55;;;;;;;12.56;61.19;99909.56;3121092;28;20053;-75
2022/05/02 01:08:42;;;;;;;6.25;3.70;;;;;;;12.49;61.03;99898.59;3122792;28;20053;-75
2022/05/02 01:10:17;;;;;;;8.52;3.58;;;;;;;12.53;60.84;99908.78;3122126;28;20131;-76
2022/05/02 01:11:48;;;;;;;11.50;3.83;;;;;;;12.52;61.02;99909.72;3120797;28;20077;-75
2022/05/02 01:13:33;;;;;;;8.90;3.70;;;;;;;12.51;61.27;99909.78;3122432;28;20438;-76
2022/05/02 01:15:07;;;;;;;5.53;3.67;;;;;;;12.44;60.93;99904.03;3120600;28;20122;-76
2022/05/02 01:16:39;;;;;;;8.60;4.13;;;;;;;12.34;61.11;99884.53;3122405;28;20054;-76
2022/05/02 01:18:11;;;;;;;9.20;4.05;;;;;;;12.48;61.13;99905.59;3124145;28;20442;-74
2022/05/02 01:19:43;;;;;;;11.23;4.38;;;;;;;12.47;61.44;99903.88;3120047;28;20058;-76
2022/05/02 01:21:49;;;;;;;6.40;3.97;;;;;;;12.20;61.15;99866.13;3122939;28;20097;-79
2022/05/02 01:23:20;;;;;;;11.73;4.55;;;;;;;12.36;61.02;99889.66;3120709;28;20107;-75
2022/05/02 01:24:52;;;;;;;7.07;3.80;;;;;;;12.14;61.22;99854.22;3122610;28;20130;-76
2022/05/02 01:26:24;;;;;;;11.38;4.10;;;;;;;12.40;61.36;99892.06;3122430;28;20111;-76
2022/05/02 01:27:57;;;;;;;7.47;4.10;;;;;;;12.45;61.42;99900.50;3123199;28;20183;-75
2022/05/02 01:29:30;;;;;;;11.00;3.95;;;;;;;12.21;61.38;99863.41;3121481;28;20529;-76
2022/05/02 01:31:02;;;;;;;;;;;;;;;12.44;61.23;99898.81;3117628;28;20510;-75
2022/05/02 01:32:34;;;;;;;8.57;4.30;;;;;;;12.37;61.39;99897.44;3123042;28;20024;-76
2022/05/02 01:34:05;;;;;;;9.30;4.20;;;;;;;11.96;62.23;99845.56;3124076;28;20053;-76
2022/05/02 01:35:37;;;;;;;8.32;4.82;;;;;;;11.61;62.32;99792.47;3124509;28;20518;-76
2022/05/02 01:37:11;;;;;;;11.32;4.65;;;;;;;11.51;62.47;99779.06;3122299;28;20103;-76
2022/05/02 01:38:43;;;;;;;8.80;4.47;;;;;;;12.16;62.68;99890.69;3122407;28;20059;-75
2022/05/02 01:40:14;;;;;;;9.82;5.18;;;;;;;12.14;62.82;99888.16;3122387;28;20128;-75
2022/05/02 01:41:48;;;;;;;7.55;4.68;;;;;;;11.88;62.76;99839.03;3122579;28;20042;-76
2022/05/02 01:43:20;;;;;;;8.68;4.80;;;;;;;11.60;62.60;99809.91;3122245;28;20077;-75
2022/05/02 01:44:52;;;;;;;10.90;5.30;;;;;;;11.42;62.36;99753.44;3125122;28;20057;-75
2022/05/02 01:46:23;;;;;;;8.25;4.68;;;;;;;12.17;62.35;99882.78;3118594;28;20560;-75
2022/05/02 01:47:55;;;;;;;10.18;5.20;;;;;;;11.90;62.13;99832.81;3118440;28;20064;-74
2022/05/02 01:49:27;;;;;;;8.93;5.30;;;;;;;12.16;62.19;99870.66;3122170;28;20051;-75
2022/05/02 01:50:58;;;;;;;12.02;5.65;;;;;;;12.12;62.27;99865.66;3122296;28;20057;-75
2022/05/02 01:52:31;;;;;;;10.40;5.63;;;;;;;11.80;62.21;99805.44;3122055;28;20058;-75
2022/05/02 01:54:03;;;;;;;;;;;;;;;12.23;62.06;99869.41;3116466;28;20061;-75
2022/05/02 01:55:36;;;;;;;14.27;5.88;;;;;;;12.20;62.02;99860.91;3122063;28;19924;-75
2022/05/02 01:57:08;;;;;;;6.05;4.40;;;;;;;11.64;62.00;99761.03;3122079;28;20057;-75
2022/05/02 01:58:41;;;;;;;11.85;4.90;;;;;;;11.60;61.83;99752.53;3122245;28;20076;-74
2022/05/02 02:00:14;;;;;;;8.27;5.40;;;;;;;12.24;61.99;99858.03;3122069;28;20061;-75
2022/05/02 02:01:45;;;;;;;10.35;5.05;;;;;;;12.21;62.24;99850.34;3122540;28;20076;-75
2022/05/02 02:03:16;;;;;;;9.52;4.75;;;;;;;12.06;62.34;99819.81;3122154;28;20506;-74
2022/05/02 02:06:38;;;;;;;8.98;5.15;;;;;;;12.13;62.11;99838.66;3119719;28;20164;-76
2022/05/02 02:08:11;;;;;;;9.25;6.00;;;;;;;11.59;62.10;99736.94;3123379;28;20061;-75
2022/05/02 02:09:43;;;;;;;11.00;5.55;;;;;;;11.73;62.08;99765.78;3121907;28;20075;-75
2022/05/02 02:11:16;;;;;;;8.15;5.82;;;;;;;11.91;62.20;99790.13;3121882;28;20065;-75
2022/05/02 02:12:46;;;;;;;11.43;6.10;;;;;;;12.17;62.38;99832.34;3121665;28;20049;-75
2022/05/02 02:14:18;;;;;;;12.07;5.05;;;;;;;12.19;61.99;99827.88;3121929;28;20581;-76
2022/05/02 02:15:50;;;;;;;7.10;4.95;;;;;;;12.20;62.25;99834.78;3122005;28;20046;-76
2022/05/02 02:17:22;;;;;;;13.30;5.30;;;;;;;12.01;62.01;99800.97;3119884;28;20529;-76
2022/05/02 02:18:54;;;;;;;9.88;4.60;;;;;;;12.13;62.44;99820.38;3121777;28;20061;-76
2022/05/02 02:20:25;;;;;;;7.25;4.97;;;;;;;12.09;62.46;99817.06;3121967;28;20053;-76
2022/05/02 02:22:16;;;;;;;9.90;5.05;;;;;;;11.57;62.51;99733.56;3121905;28;20056;-76
2022/05/02 02:23:49;;;;;;;10.00;5.43;;;;;;;12.12;62.32;99827.34;3122051;28;20124;-74
2022/05/02 02:25:20;;;;;;;;;;;;;;;12.10;62.31;99820.50;3122219;28;20053;-74
2022/05/02 02:26:51;;;;;;;9.07;4.78;;;;;;;11.88;62.49;99786.84;3121702;28;19974;-74
2022/05/02 02:28:23;;;;;;;12.30;5.30;;;;;;;12.06;62.25;99825.03;3121592;28;20127;-74
2022/05/02 02:29:54;;;;;;;8.95;4.88;;;;;;;12.02;62.47;99819.13;3121926;28;20060;-74
2022/05/02 02:31:26;;;;;;;8.40;5.05;;;;;;;12.02;62.69;99829.56;3121591;28;20056;-74
2022/05/02 02:32:59;;;;;;;7.90;4.65;;;;;;;11.99;62.86;99832.34;3121610;28;20080;-74
2022/05/02 02:34:31;;;;;;;13.23;5.15;;;;;;;11.98;62.63;99825.44;3121901;28;20379;-74
2022/05/02 02:36:03;;;;;;;8.48;4.78;;;;;;;11.98;62.77;99824.56;3124281;28;20045;-74
2022/05/02 02:37:34;;;;;;;16.15;5.97;;;;;;;11.73;62.97;99791.88;3121537;28;20464;-75
2022/05/02 02:39:07;;;;;;;10.98;5.47;;;;;;;11.99;62.87;99827.13;3121653;28;20085;-75
2022/05/02 02:40:39;;;;;;;9.93;5.78;;;;;;;12.00;63.22;99834.03;3121802;28;20057;-75
2022/05/02 02:42:11;;;;;;;8.10;4.97;;;;;;;12.00;62.76;99823.59;3121484;28;20053;-75
2022/05/02 02:43:43;;;;;;;10.25;5.85;;;;;;;11.99;63.16;99823.69;3121509;28;20049;-74
2022/05/02 02:45:15;;;;;;;11.40;5.93;;;;;;;12.02;62.82;99832.19;3123237;28;20770;-75
2022/05/02 02:46:47;;;;;;;9.48;5.65;;;;;;;12.02;63.30;99826.13;3121718;28;20049;-75
2022/05/02 02:48:18;;;;;;;13.70;5.95;;;;;;;11.88;63.03;99808.56;3115334;28;20054;-75
2022/05/02 02:49:50;;;;;;;9.07;5.43;;;;;;;12.01;62.92;99830.50;3121389;28;20573;-75
2022/05/02 02:51:22;;;;;;;10.25;6.65;;;;;;;11.94;63.09;99821.28;3121562;28;20049;-75
2022/05/02 02:52:54;;;;;;;11.95;5.90;;;;;;;11.92;63.09;99812.72;3121474;28;20065;-75
2022/05/02 02:54:27;;;;;;;12.27;6.25;;;;;;;11.72;63.12;99784.13;3121275;28;20112;-75
2022/05/02 02:55:59;;;;;;;14.60;6.25;;;;;;;11.81;62.91;99804.53;3122302;28;20511;-75
2022/05/02 02:57:31;;;;;;;19.67;7.18;;;;;;;11.94;63.30;99815.22;3121449;28;20072;-75
2022/05/02 02:59:03;;;;;;;15.60;6.35;;;;;;;11.78;63.29;99795.09;3121621;28;20053;-75
2022/05/02 03:00:35;;;;;;;10.88;5.88;;;;;;;11.94;63.33;99829.13;3120599;28;20053;-75
2022/05/02 03:02:06;;;;;;;11.93;6.43;;;;;;;12.01;63.11;99840.13;3121975;28;20132;-75
2022/05/02 03:06:06;;;;;;;12.73;5.47;;;;;;;11.97;63.46;99834.19;3120529;28;20029;-75
2022/05/02 03:07:37;;;;;;;11.32;6.20;;;;;;;11.96;63.14;99837.72;3121048;28;20079;-75
2022/05/02 03:09:09;;;;;;;18.13;5.93;;;;;;;11.95;63.38;99833.44;3120464;28;20049;-75
2022/05/02 03:10:42;;;;;;;8.10;5.43;;;;;;;11.94;63.29;99830.88;3121130;28;20465;-74
2022/05/02 03:12:13;;;;;;;;;;;;;;;11.92;63.47;99833.59;3124113;28;20577;-74
2022/05/02 03:13:45;;;;;;;10.30;6.15;;;;;;;11.92;63.39;99843.16;3121246;28;20003;-75
2022/05/02 03:15:16;;;;;;;10.10;6.07;;;;;;;11.58;63.41;99785.66;3119085;28;20049;-74
2022/05/02 03:16:48;;;;;;;12.55;5.80;;;;;;;11.91;63.31;99844.09;3118358;28;20061;-75
2022/05/02 03:18:20;;;;;;;10.57;6.32;;;;;;;11.67;63.50;99804.38;3121059;28;20119;-75
2022/05/02 03:19:51;;;;;;;11.23;5.82;;;;;;;11.90;63.34;99840.63;3120461;28;20199;-75
2022/05/02 03:21:23;;;;;;;10.38;6.38;;;;;;;11.91;63.66;99849.31;3121075;28;20564;-74
2022/05/02 03:22:55;;;;;;;11.75;6.82;;;;;;;11.85;63.96;99840.00;3122814;28;20514;-76
2022/05/02 03:24:27;;;;;;;10.55;6.78;;;;;;;11.88;64.06;99852.06;3121119;28;20057;-75
2022/05/02 03:26:01;;;;;;;14.73;6.90;;;;;;;11.71;63.82;99816.34;3120789;28;20079;-76
2022/05/02 03:35:38;;;;;;;13.48;6.47;;;;;;;11.63;64.41;99828.94;3118714;28;20033;-79
2022/05/02 03:37:10;;;;;;;15.57;7.78;;;;;;;11.62;64.27;99828.06;3119750;28;20083;-76
2022/05/02 03:38:42;;;;;;;13.73;8.18;;;;;;;11.76;64.21;99854.31;3119789;28;20497;-76
2022/05/02 03:40:14;;;;;;;15.48;8.10;;;;;;;11.76;64.25;99848.28;3123629;28;20061;-75
2022/05/02 03:41:49;;;;;;;14.00;7.90;;;;;;;11.78;64.71;99851.66;3112973;28;20053;-76
2022/05/02 03:43:21;;;;;;;14.32;7.90;;;;;;;11.67;64.46;99835.69;3119532;28;20053;-76
2022/05/02 03:44:53;;;;;;;12.57;7.10;;;;;;;11.72;64.56;99842.38;3119683;28;20053;-76
2022/05/02 03:46:25;;;;;;;11.65;7.25;;;;;;;11.78;64.29;99852.50;3120941;28;20096;-76
2022/05/02 03:47:59;;;;;;;16.30;6.85;;;;;;;11.81;64.75;99846.28;3120833;28;20112;-76
2022/05/02 03:49:29;;;;;;;10.73;6.38;;;;;;;11.44;64.37;99788.09;3121029;28;20053;-76
2022/05/02 03:51:02;;;;;;;10.55;6.38;;;;;;;11.57;64.24;99802.22;3120744;28;20055;-76
2022/05/02 03:52:34;;;;;;;14.93;6.77;;;;;;;11.66;64.60;99821.81;3120329;28;20084;-76
2022/05/02 03:59:15;;;;;;;15.70;7.47;;;;;;;11.43;64.54;99783.81;3112280;28;20498;-77
2022/05/02 04:00:48;;;;;;;21.13;6.65;;;;;;;11.63;64.60;99821.13;3121029;28;20081;-77
2022/05/02 04:02:20;;;;;;;12.27;6.00;;;;;;;11.46;64.68;99791.47;3114219;28;20076;-77
2022/05/02 04:03:52;;;;;;;15.90;6.57;;;;;;;11.57;64.74;99794.41;3123522;28;20123;-77
2022/05/02 04:05:24;;;;;;;13.35;6.80;;;;;;;11.57;64.82;99797.00;3119114;28;20045;-77
2022/05/02 04:06:56;;;;;;;15.32;7.22;;;;;;;11.74;64.63;99808.34;3120565;28;20053;-76
2022/05/02 04:08:28;;;;;;;17.85;7.10;;;;;;;11.68;64.52;99798.22;3120499;28;20144;-76
2022/05/02 04:10:00;;;;;;;17.95;6.80;;;;;;;11.67;64.40;99796.56;3120884;28;20072;-77
2022/05/02 04:11:32;;;;;;;12.15;6.55;;;;;;;11.53;64.51;99769.38;3120568;28;20115;-77
2022/05/02 04:13:04;;;;;;;12.77;6.70;;;;;;;11.84;64.64;99815.66;3120686;28;20110;-77
2022/05/02 04:14:37;;;;;;;12.52;7.22;;;;;;;11.81;64.89;99809.75;3120773;28;20111;-77
2022/05/02 04:16:08;;;;;;;17.95;7.20;;;;;;;11.91;64.49;99824.06;3120764;28;20065;-77
2022/05/02 04:17:41;;;;;;;13.32;7.50;;;;;;;11.79;64.78;99806.38;3119891;28;21040;-77
2022/05/02 04:19:13;;;;;;;11.07;6.68;;;;;;;11.79;64.36;99803.75;3120237;28;20583;-77
2022/05/02 04:20:45;;;;;;;16.80;7.95;;;;;;;11.69;64.68;99784.28;3120974;28;20103;-77
2022/05/02 04:22:16;;;;;;;14.00;7.00;;;;;;;11.70;64.70;99786.81;3120432;28;20046;-76
2022/05/02 04:23:49;;;;;;;15.70;6.97;;;;;;;11.96;64.73;99824.66;3121187;28;20057;-76
2022/05/02 04:25:20;;;;;;;14.70;7.47;;;;;;;11.81;64.63;99802.78;3119391;28;20053;-77
2022/05/02 04:26:52;;;;;;;14.73;6.60;;;;;;;11.78;64.79;99800.31;3120551;28;20437;-77
2022/05/02 04:28:23;;;;;;;16.65;7.80;;;;;;;12.00;64.90;99822.75;3120897;28;20506;-77
2022/05/02 04:29:57;;;;;;;16.00;7.30;;;;;;;11.87;64.66;99800.81;3120564;28;20060;-77
2022/05/02 04:31:28;;;;;;;;;;;;;;;12.05;64.57;99828.59;3123973;28;20107;-75
2022/05/02 04:33:02;;;;;;;13.98;6.60;;;;;;;12.05;64.26;99826.81;3120595;28;19927;-76
2022/05/02 04:34:33;;;;;;;14.75;5.97;;;;;;;11.92;64.42;99817.06;3120597;28;20138;-76
2022/05/02 04:36:06;;;;;;;15.05;6.82;;;;;;;12.06;64.66;99828.50;3120482;28;20046;-77
2022/05/02 04:37:38;;;;;;;18.00;7.72;;;;;;;12.04;64.25;99832.97;3121016;28;20061;-77
2022/05/02 04:39:10;;;;;;;14.57;6.90;;;;;;;12.06;64.34;99833.72;3119685;28;20067;-73
2022/05/02 04:40:42;;;;;;;21.60;7.25;;;;;;;12.07;64.33;99832.81;3123020;28;20049;-76
2022/05/02 04:42:16;;;;;;;13.75;6.60;;;;;;;11.79;64.43;99782.88;3120358;28;20067;-76
2022/05/02 04:43:51;;;;;;;10.20;6.20;;;;;;;12.11;64.62;99833.50;3120339;28;20132;-75
2022/05/02 04:45:25;;;;;;;14.45;7.03;;;;;;;11.65;64.41;99757.50;3120638;28;20064;-76
2022/05/02 04:46:57;;;;;;;18.35;8.20;;;;;;;12.15;64.40;99828.94;3120155;28;20050;-75
2022/05/02 04:48:29;;;;;;;13.90;7.07;;;;;;;11.60;64.56;99744.69;3120303;28;20076;-76
2022/05/02 04:50:00;;;;;;;18.13;7.00;;;;;;;12.00;64.25;99800.09;3115071;28;20049;-75
2022/05/02 04:51:32;;;;;;;21.05;6.43;;;;;;;11.80;64.37;99763.69;3121061;28;20514;-75
2022/05/02 04:53:04;;;;;;;9.82;4.72;;;;;;;11.51;64.42;99713.88;3117683;28;20066;-75
2022/05/02 04:54:37;;;;;;;10.57;5.80;;;;;;;12.09;64.04;99803.16;3118793;28;20140;-76
2022/05/02 04:56:09;;;;;;;11.35;5.35;;;;;;;11.96;64.19;99774.25;3120515;28;20526;-76
2022/05/02 04:57:41;;;;;;;15.47;6.50;;;;;;;12.11;63.88;99801.31;3119800;28;20478;-76
2022/05/02 04:59:13;;;;;;;12.43;4.93;;;;;;;11.53;64.16;99700.72;3119663;28;20059;-76
2022/05/02 05:00:47;;;;;;;7.40;4.65;;;;;;;12.30;63.94;99836.00;3120346;28;20063;-75
2022/05/02 05:02:19;;;;;;;9.52;5.13;;;;;;;11.68;63.49;99725.19;3120479;28;20702;-75
2022/05/02 05:03:52;;;;;;;10.70;5.10;;;;;;;12.33;63.57;99832.38;3119988;28;20057;-75
2022/05/02 05:05:24;;;;;;;13.02;5.15;;;;;;;11.96;63.57;99772.47;3123951;28;20085;-75
2022/05/02 05:06:56;;;;;;;7.70;4.43;;;;;;;12.02;63.67;99790.44;3122826;28;20096;-75
2022/05/02 05:08:29;;;;;;;11.73;4.35;;;;;;;11.74;63.44;99735.31;3126365;28;20053;-75
2022/05/02 05:10:00;;;;;;;16.58;5.53;;;;;;;11.98;63.12;99781.09;3122265;28;20051;-78
2022/05/02 05:11:42;;;;;;;8.00;4.50;;;;;;;12.26;63.62;99827.47;3122790;28;20053;-75
2022/05/02 05:13:19;;;;;;;9.95;4.35;;;;;;;11.92;63.28;99768.34;3119061;28;20063;-76
2022/05/02 05:17:08;;;;;;;5.82;4.18;;;;;;;12.23;63.11;99805.91;3122028;28;20050;-74
2022/05/02 05:18:53;;;;;;;8.93;4.03;;;;;;;12.47;62.88;99840.34;3121933;28;20059;-74
2022/05/02 05:20:39;;;;;;;7.32;4.03;;;;;;;12.50;63.21;99841.03;3115943;28;20057;-71
2022/05/02 05:22:24;;;;;;;9.10;4.43;;;;;;;12.28;62.91;99804.75;3120882;28;20103;-74
2022/05/02 05:24:30;;;;;;;8.02;4.60;;;;;;;12.59;63.02;99849.31;3117458;28;20053;-75
2022/05/02 05:26:16;;;;;;;10.45;4.78;;;;;;;12.63;62.92;99842.97;3121681;28;20045;-74
2022/05/02 05:27:59;;;;;;;9.57;4.22;;;;;;;12.53;62.75;99825.19;3121785;28;20045;-76
2022/05/02 05:29:42;;;;;;;8.05;3.83;;;;;;;12.52;62.53;99818.28;3122162;28;20049;-75
2022/05/02 05:31:55;;;;;;;7.18;3.92;;;;;;;12.75;62.15;99832.75;3122116;28;20473;-80
2022/05/02 05:33:45;;;;;;;7.70;3.95;;;;;;;12.88;62.20;99830.31;3117951;28;20144;-75
2022/05/02 05:35:24;;;;;;;8.27;4.00;;;;;;;12.80;62.03;99806.34;3118449;28;20053;-72
2022/05/02 05:37:36;;;;;;;8.45;4.70;;;;;;;13.06;61.83;99833.69;3112283;28;20081;-68
2022/05/02 05:39:12;;;;;;;11.25;3.38;;;;;;;13.15;61.32;99834.94;3078090;28;20608;-67
2022/05/02 05:40:53;;;;;;;13.43;4.57;;;;;;;13.19;61.16;99839.06;3112230;28;20049;-68
2022/05/02 05:42:37;;;;;;;7.85;4.30;;;;;;;13.01;61.25;99799.09;3112971;28;20507;-67
2022/05/02 05:44:20;;;;;;;7.40;4.43;;;;;;;13.34;61.09;99843.50;3113167;28;20529;-72
2022/05/02 05:46:03;;;;;;;;;;;;;;;13.36;60.98;99841.63;3113633;28;20486;-72
2022/05/02 05:47:51;;;;;;;8.18;4.22;;;;;;;13.42;60.91;99848.28;3105560;28;19924;-71
2022/05/02 05:49:38;;;;;;;7.90;3.92;;;;;;;13.43;60.99;99853.44;3110462;28;20860;-72
2022/05/02 05:51:30;;;;;;;10.88;4.18;;;;;;;13.42;60.88;99848.28;3113297;28;20057;-70
2022/05/02 05:53:10;;;;;;;8.73;3.65;;;;;;;13.01;61.15;99796.50;3112357;28;20057;-74
2022/05/02 05:54:57;;;;;;;8.73;3.90;;;;;;;13.13;61.07;99815.88;3112419;28;20122;-70
2022/05/02 05:56:41;;;;;;;23.70;13.82;;;;;;;13.37;61.24;99851.19;3111718;28;20172;-68
2022/05/02 05:58:20;;;;;;;12.57;5.53;;;;;;;13.27;60.96;99836.06;3111074;28;20651;-71
2022/05/02 06:00:04;;;;;;;8.15;4.15;;;;;;;13.43;61.16;99848.22;3112523;28;20160;-66
2022/05/02 06:01:55;;;;;;;8.35;3.97;;;;;;;13.51;60.55;99845.16;3113193;28;20598;-67
2022/05/02 06:03:35;;;;;;;30.63;18.58;;;;;;;13.59;60.33;99847.34;3107754;28;20060;-68
2022/05/02 06:05:09;;;;;;;59.33;26.98;;;;;;;13.65;60.61;99850.44;3111829;28;20525;-67
2022/05/02 06:06:42;;;;;;;18.35;9.95;;;;;;;13.69;60.67;99853.72;3113651;28;20065;-67
2022/05/02 06:08:17;;;;;;;12.00;4.90;;;;;;;13.72;60.28;99843.09;3111113;28;20045;-68
2022/05/02 06:09:50;;;;;;;13.45;5.18;;;;;;;13.65;60.09;99839.97;3111988;28;20712;-69
2022/05/02 06:11:25;;;;;;;16.80;5.68;;;;;;;13.68;59.98;99851.22;3110350;28;20167;-69
2022/05/02 06:12:59;;;;;;;12.32;5.35;;;;;;;13.70;59.99;99850.19;3114184;28;20136;-70
2022/05/02 06:14:33;;;;;;;14.93;5.82;;;;;;;13.75;60.16;99856.00;3112513;28;20095;-73
2022/05/02 06:19:52;;;;;;;10.95;5.82;;;;;;;13.74;60.38;99841.22;3108173;28;20053;-76
2022/05/02 06:21:26;;;;;;;10.85;5.80;;;;;;;13.83;60.40;99852.94;3112240;28;20049;-74
2022/05/02 06:23:00;;;;;;;;;;;;;;;13.85;59.92;99859.78;3116339;28;20834;-71
2022/05/02 06:24:37;;;;;;;14.30;5.15;;;;;;;13.84;60.03;99859.84;3106373;28;19925;-66
2022/05/02 06:26:11;;;;;;;11.90;5.03;;;;;;;13.78;60.12;99850.63;3113248;28;20073;-70
2022/05/02 06:27:44;;;;;;;16.70;6.05;;;;;;;13.89;60.24;99852.59;3111278;28;20580;-70
2022/05/02 06:29:19;;;;;;;10.05;5.45;;;;;;;13.95;60.02;99851.41;3114594;28;20057;-70
2022/05/02 06:30:56;;;;;;;12.63;5.70;;;;;;;13.99;59.73;99848.53;3111218;28;20060;-69
2022/05/02 06:32:31;;;;;;;12.07;5.43;;;;;;;13.97;59.83;99846.91;3112984;28;20144;-66
2022/05/02 06:34:04;;;;;;;8.38;4.85;;;;;;;13.94;60.00;99845.31;3104672;28;20128;-69
2022/05/02 06:35:58;;;;;;;10.57;5.00;;;;;;;13.99;60.00;99845.03;3105982;28;20560;-69
2022/05/02 06:37:40;;;;;;;8.50;4.40;;;;;;;14.06;59.88;99847.22;3112537;28;20049;-69
2022/05/02 06:39:20;;;;;;;7.63;4.25;;;;;;;14.11;59.60;99852.19;3110425;28;20052;-71
2022/05/02 06:41:01;;;;;;;7.65;4.63;;;;;;;13.99;59.42;99818.84;3113817;28;20585;-68
2022/05/02 06:42:39;;;;;;;9.90;4.47;;;;;;;14.17;59.48;99828.25;3104333;28;20145;-68
2022/05/02 06:44:25;;;;;;;9.57;4.97;;;;;;;14.12;59.40;99814.59;3112498;28;20064;-68
2022/05/02 06:46:05;;;;;;;11.55;4.45;;;;;;;14.25;59.40;99814.69;3116278;28;20049;-69
2022/05/02 06:47:50;;;;;;;10.23;4.50;;;;;;;14.50;59.37;99824.53;3108175;28;20574;-68
2022/05/02 06:49:25;;;;;;;6.85;4.45;;;;;;;14.53;58.95;99822.59;3109661;28;20107;-68
2022/05/02 06:51:01;;;;;;;7.45;3.97;;;;;;;14.61;58.57;99816.03;3111430;28;20057;-67
2022/05/02 06:52:41;;;;;;;8.00;3.33;;;;;;;14.73;58.12;99816.16;3110586;28;20053;-68
2022/05/02 06:54:40;;;;;;;9.90;3.72;;;;;;;14.93;57.71;99821.91;3109186;28;20060;-69
2022/05/02 06:56:22;;;;;;;9.57;3.35;;;;;;;15.07;56.69;99814.00;3105582;28;20048;-70
2022/05/02 06:58:08;;;;;;;5.57;2.50;;;;;;;15.14;55.60;99817.91;3108014;28;20149;-69
2022/05/02 06:59:46;;;;;;;7.90;2.90;;;;;;;15.18;54.94;99813.34;3105552;28;20060;-67
2022/05/02 07:01:28;;;;;;;4.40;2.58;;;;;;;15.00;53.85;99802.25;3109238;28;20053;-68
2022/05/02 07:03:18;;;;;;;8.30;2.78;;;;;;;14.99;53.75;99821.50;3110799;28;20136;-67
2022/05/02 07:04:52;;;;;;;7.15;3.03;;;;;;;15.00;54.17;99829.31;3109381;28;20245;-66
2022/05/02 07:06:45;;;;;;;4.20;2.92;;;;;;;15.08;54.17;99820.94;3113845;28;20060;-65
2022/05/02 07:08:27;;;;;;;8.20;3.05;;;;;;;15.09;53.78;99819.19;3108806;28;20049;-66
2022/05/02 07:10:05;;;;;;;5.70;3.10;;;;;;;15.03;54.22;99807.28;3113692;28;20138;-64
2022/05/02 07:11:45;;;;;;;7.22;3.08;;;;;;;15.21;54.07;99827.09;3111149;28;20226;-66
2022/05/02 07:13:29;;;;;;;5.10;3.20;;;;;;;15.31;53.99;99826.50;3113040;28;20060;-68
2022/05/02 07:15:06;;;;;;;5.10;3.10;;;;;;;15.37;52.62;99823.47;3111709;28;20053;-66
2022/05/02 07:16:45;;;;;;;7.45;2.50;;;;;;;15.46;52.39;99817.63;3111741;28;20069;-65
2022/05/02 07:18:38;;;;;;;5.95;2.85;;;;;;;15.46;52.04;99822.88;3111124;28;20053;-66
2022/05/02 07:20:18;;;;;;;3.40;2.63;;;;;;;15.59;51.56;99820.31;3116206;28;20131;-68
2022/05/02 07:21:56;;;;;;;6.72;2.85;;;;;;;15.64;51.63;99823.47;3107263;28;20049;-65
2022/05/02 07:23:50;;;;;;;5.38;2.80;;;;;;;15.65;51.13;99818.13;3109526;28;20209;-66
2022/05/02 07:25:23;;;;;;;5.93;2.50;;;;;;;15.66;50.25;99818.97;3112862;28;20289;-67
2022/05/02 07:27:00;;;;;;;;;;;;;;;15.63;50.37;99822.63;3115081;28;20600;-68
2022/05/02 07:28:44;;;;;;;5.47;3.15;;;;;;;15.72;50.60;99817.75;3111119;28;19925;-68
2022/05/02 07:30:22;;;;;;;9.02;3.08;;;;;;;15.78;50.78;99817.34;3115057;28;20053;-69
2022/05/02 07:31:55;;;;;;;4.40;2.70;;;;;;;15.85;50.52;99819.47;3110487;28;20144;-64
2022/05/02 07:33:31;;;;;;;9.02;2.88;;;;;;;15.90;50.66;99819.97;3113261;28;20060;-66
2022/05/02 07:35:28;;;;;;;6.68;2.88;;;;;;;15.74;50.59;99802.75;3111912;28;20143;-65
2022/05/02 07:37:01;;;;;;;8.50;2.90;;;;;;;15.53;51.11;99797.06;3115693;28;20056;-66
2022/05/02 07:38:35;;;;;;;8.48;3.15;;;;;;;15.62;51.47;99810.44;3124333;28;20111;-66
2022/05/02 07:40:12;;;;;;;8.02;3.08;;;;;;;15.68;51.61;99812.69;3124162;28;20367;-63
2022/05/02 07:41:44;;;;;;;8.43;3.33;;;;;;;15.82;51.63;99803.06;3115059;28;20428;-68
2022/05/02 07:43:19;;;;;;;8.02;2.78;;;;;;;15.89;51.43;99802.56;3121313;28;20065;-66
2022/05/02 07:44:55;;;;;;;11.48;3.65;;;;;;;15.69;51.24;99763.66;3121464;28;20061;-67
2022/05/02 07:46:37;;;;;;;5.47;3.05;;;;;;;15.91;51.19;99784.06;3121603;28;20060;-67
2022/05/02 07:48:12;;;;;;;7.22;2.65;;;;;;;16.01;50.78;99784.28;3120519;28;20412;-67
2022/05/02 07:49:48;;;;;;;7.70;3.03;;;;;;;16.12;51.01;99787.88;3120822;28;20115;-69
2022/05/02 07:51:21;;;;;;;4.70;2.85;;;;;;;16.21;50.66;99780.28;3119234;28;20132;-69
2022/05/02 07:52:53;;;;;;;10.98;3.25;;;;;;;16.25;50.49;99773.88;3120704;28;20202;-69